< < Back
Terminal Aerodrome Forecast


Current Version              Previous Versions:   1  2  3  4  5  6  7  8  9  

Terminal Aerodrome Forecast

791
FTUS42 KCHS 061736
TAFSAV
TAF
KSAV 061736Z 0618/0718 06012G18KT P6SM SCT050 BKN250
     FM062200 03011KT P6SM SCT035 BKN150
     FM071200 34014G22KT P6SM FEW040 BKN200=



Latest METAR

687
SAUS80 KWBC 070500
MTRSAV
METAR KSAV 070453Z AUTO 00000KT 10SM CLR 17/15 A3008 RMK AO2 SLP187
T01720150 402780156 TSNO


USA.gov is the U.S. government's official web portal to all federal, state and local government web resources and services.